sensor_id;sensor_type;location;lat;lon;timestamp;P1;durP1;ratioP1;P2;durP2;ratioP2
4575;SDS011;2300;51.874;8.430;2023-03-31T00:02:00;64.33;;;61.00;;
4575;SDS011;2300;51.874;8.430;2023-03-31T00:04:31;63.67;;;60.37;;
4575;SDS011;2300;51.874;8.430;2023-03-31T00:06:58;65.43;;;61.90;;
4575;SDS011;2300;51.874;8.430;2023-03-31T00:09:24;72.43;;;68.77;;
4575;SDS011;2300;51.874;8.430;2023-03-31T00:11:54;71.03;;;67.43;;
4575;SDS011;2300;51.874;8.430;2023-03-31T00:14:21;66.27;;;62.70;;
4575;SDS011;2300;51.874;8.430;2023-03-31T00:16:48;65.60;;;62.27;;
4575;SDS011;2300;51.874;8.430;2023-03-31T00:19:14;69.33;;;65.93;;
4575;SDS011;2300;51.874;8.430;2023-03-31T00:21:44;63.63;;;60.47;;
4575;SDS011;2300;51.874;8.430;2023-03-31T00:24:11;65.00;;;61.60;;
4575;SDS011;2300;51.874;8.430;2023-03-31T00:26:39;63.23;;;59.87;;
4575;SDS011;2300;51.874;8.430;2023-03-31T00:29:06;63.27;;;59.60;;
4575;SDS011;2300;51.874;8.430;2023-03-31T00:31:36;62.33;;;59.17;;
4575;SDS011;2300;51.874;8.430;2023-03-31T00:34:03;62.00;;;58.90;;
4575;SDS011;2300;51.874;8.430;2023-03-31T00:36:30;66.47;;;62.80;;
4575;SDS011;2300;51.874;8.430;2023-03-31T00:39:00;69.90;;;66.17;;
4575;SDS011;2300;51.874;8.430;2023-03-31T00:41:30;65.80;;;61.97;;
4575;SDS011;2300;51.874;8.430;2023-03-31T00:44:01;64.80;;;61.20;;
4575;SDS011;2300;51.874;8.430;2023-03-31T00:46:32;62.23;;;58.93;;
4575;SDS011;2300;51.874;8.430;2023-03-31T00:49:02;66.43;;;62.73;;
4575;SDS011;2300;51.874;8.430;2023-03-31T00:51:29;64.37;;;60.90;;
4575;SDS011;2300;51.874;8.430;2023-03-31T00:54:00;62.10;;;58.87;;
4575;SDS011;2300;51.874;8.430;2023-03-31T00:56:31;61.63;;;58.07;;
4575;SDS011;2300;51.874;8.430;2023-03-31T00:59:02;63.33;;;60.00;;
4575;SDS011;2300;51.874;8.430;2023-03-31T01:01:32;66.13;;;62.47;;
4575;SDS011;2300;51.874;8.430;2023-03-31T01:04:01;65.33;;;61.83;;
4575;SDS011;2300;51.874;8.430;2023-03-31T01:06:31;67.33;;;63.93;;
4575;SDS011;2300;51.874;8.430;2023-03-31T01:08:58;62.63;;;59.23;;
4575;SDS011;2300;51.874;8.430;2023-03-31T01:11:30;66.97;;;63.47;;
4575;SDS011;2300;51.874;8.430;2023-03-31T01:13:57;68.57;;;65.07;;
4575;SDS011;2300;51.874;8.430;2023-03-31T01:16:24;68.57;;;64.73;;
4575;SDS011;2300;51.874;8.430;2023-03-31T01:18:50;72.30;;;68.43;;
4575;SDS011;2300;51.874;8.430;2023-03-31T01:21:23;65.97;;;62.17;;
4575;SDS011;2300;51.874;8.430;2023-03-31T01:24:27;66.87;;;63.27;;
4575;SDS011;2300;51.874;8.430;2023-03-31T01:27:20;66.83;;;63.17;;
4575;SDS011;2300;51.874;8.430;2023-03-31T01:30:07;65.63;;;61.83;;
4575;SDS011;2300;51.874;8.430;2023-03-31T01:38:56;64.47;;;60.73;;
4575;SDS011;2300;51.874;8.430;2023-03-31T01:41:41;63.10;;;59.67;;
4575;SDS011;2300;51.874;8.430;2023-03-31T01:44:16;61.10;;;57.60;;
4575;SDS011;2300;51.874;8.430;2023-03-31T01:46:51;61.10;;;57.40;;
4575;SDS011;2300;51.874;8.430;2023-03-31T01:49:21;61.37;;;57.87;;
4575;SDS011;2300;51.874;8.430;2023-03-31T01:51:56;62.47;;;58.97;;
4575;SDS011;2300;51.874;8.430;2023-03-31T01:54:29;58.40;;;55.13;;
4575;SDS011;2300;51.874;8.430;2023-03-31T01:57:05;62.73;;;59.10;;
4575;SDS011;2300;51.874;8.430;2023-03-31T01:59:41;66.30;;;62.23;;
4575;SDS011;2300;51.874;8.430;2023-03-31T02:02:14;61.03;;;57.67;;
4575;SDS011;2300;51.874;8.430;2023-03-31T02:04:46;67.73;;;64.07;;
4575;SDS011;2300;51.874;8.430;2023-03-31T02:07:16;67.73;;;64.03;;
4575;SDS011;2300;51.874;8.430;2023-03-31T02:09:47;66.90;;;63.00;;
4575;SDS011;2300;51.874;8.430;2023-03-31T02:12:18;63.03;;;59.53;;
4575;SDS011;2300;51.874;8.430;2023-03-31T02:14:47;64.93;;;61.50;;
4575;SDS011;2300;51.874;8.430;2023-03-31T02:17:18;68.53;;;65.10;;
4575;SDS011;2300;51.874;8.430;2023-03-31T02:19:54;72.47;;;68.73;;
4575;SDS011;2300;51.874;8.430;2023-03-31T02:22:23;60.03;;;56.90;;
4575;SDS011;2300;51.874;8.430;2023-03-31T02:24:52;61.60;;;58.10;;
4575;SDS011;2300;51.874;8.430;2023-03-31T02:27:21;63.93;;;60.63;;
4575;SDS011;2300;51.874;8.430;2023-03-31T02:29:52;66.30;;;62.73;;
4575;SDS011;2300;51.874;8.430;2023-03-31T02:32:21;68.13;;;64.43;;
4575;SDS011;2300;51.874;8.430;2023-03-31T02:34:49;70.47;;;66.83;;
4575;SDS011;2300;51.874;8.430;2023-03-31T02:37:16;65.70;;;62.37;;
4575;SDS011;2300;51.874;8.430;2023-03-31T02:39:43;68.10;;;64.47;;
4575;SDS011;2300;51.874;8.430;2023-03-31T02:42:14;77.17;;;73.37;;
4575;SDS011;2300;51.874;8.430;2023-03-31T02:44:42;70.47;;;66.63;;
4575;SDS011;2300;51.874;8.430;2023-03-31T02:47:09;67.33;;;63.93;;
4575;SDS011;2300;51.874;8.430;2023-03-31T02:49:39;65.33;;;62.13;;
4575;SDS011;2300;51.874;8.430;2023-03-31T02:52:22;69.27;;;65.63;;
4575;SDS011;2300;51.874;8.430;2023-03-31T02:57:51;56.70;;;53.80;;
4575;SDS011;2300;51.874;8.430;2023-03-31T03:00:43;62.20;;;59.00;;
4575;SDS011;2300;51.874;8.430;2023-03-31T03:03:24;68.87;;;65.43;;
4575;SDS011;2300;51.874;8.430;2023-03-31T03:06:00;67.57;;;63.87;;
4575;SDS011;2300;51.874;8.430;2023-03-31T03:08:40;73.20;;;69.53;;
4575;SDS011;2300;51.874;8.430;2023-03-31T03:11:20;75.30;;;71.00;;
4575;SDS011;2300;51.874;8.430;2023-03-31T03:13:54;79.03;;;74.93;;
4575;SDS011;2300;51.874;8.430;2023-03-31T03:16:27;88.70;;;84.17;;
4575;SDS011;2300;51.874;8.430;2023-03-31T03:19:00;78.30;;;73.90;;
4575;SDS011;2300;51.874;8.430;2023-03-31T03:21:28;70.43;;;66.93;;
4575;SDS011;2300;51.874;8.430;2023-03-31T03:23:55;78.30;;;74.10;;
4575;SDS011;2300;51.874;8.430;2023-03-31T03:26:22;81.40;;;77.00;;
4575;SDS011;2300;51.874;8.430;2023-03-31T03:28:52;89.37;;;85.07;;
4575;SDS011;2300;51.874;8.430;2023-03-31T03:31:19;84.37;;;80.03;;
4575;SDS011;2300;51.874;8.430;2023-03-31T03:33:49;76.60;;;72.40;;
4575;SDS011;2300;51.874;8.430;2023-03-31T03:36:16;72.80;;;68.63;;
4575;SDS011;2300;51.874;8.430;2023-03-31T03:38:42;73.93;;;69.93;;
4575;SDS011;2300;51.874;8.430;2023-03-31T03:41:09;75.47;;;71.47;;
4575;SDS011;2300;51.874;8.430;2023-03-31T03:43:35;88.77;;;84.03;;
4575;SDS011;2300;51.874;8.430;2023-03-31T03:46:01;86.20;;;81.80;;
4575;SDS011;2300;51.874;8.430;2023-03-31T03:48:29;78.50;;;74.60;;
4575;SDS011;2300;51.874;8.430;2023-03-31T03:50:56;90.60;;;85.57;;
4575;SDS011;2300;51.874;8.430;2023-03-31T03:53:24;88.97;;;84.17;;
4575;SDS011;2300;51.874;8.430;2023-03-31T03:55:50;78.60;;;74.37;;
4575;SDS011;2300;51.874;8.430;2023-03-31T03:58:17;81.13;;;76.73;;
4575;SDS011;2300;51.874;8.430;2023-03-31T04:00:44;81.00;;;76.60;;
4575;SDS011;2300;51.874;8.430;2023-03-31T04:03:10;85.93;;;81.40;;
4575;SDS011;2300;51.874;8.430;2023-03-31T04:05:37;81.30;;;77.00;;
4575;SDS011;2300;51.874;8.430;2023-03-31T04:08:05;87.47;;;82.27;;
4575;SDS011;2300;51.874;8.430;2023-03-31T04:10:32;85.97;;;81.17;;
4575;SDS011;2300;51.874;8.430;2023-03-31T04:12:59;91.00;;;85.87;;
4575;SDS011;2300;51.874;8.430;2023-03-31T04:15:25;89.57;;;84.90;;
4575;SDS011;2300;51.874;8.430;2023-03-31T04:17:52;93.13;;;88.30;;
4575;SDS011;2300;51.874;8.430;2023-03-31T04:20:19;90.97;;;86.23;;
4575;SDS011;2300;51.874;8.430;2023-03-31T04:22:46;90.43;;;85.60;;
4575;SDS011;2300;51.874;8.430;2023-03-31T04:25:16;104.37;;;98.93;;
4575;SDS011;2300;51.874;8.430;2023-03-31T04:27:42;104.00;;;98.37;;
4575;SDS011;2300;51.874;8.430;2023-03-31T04:30:14;102.77;;;97.57;;
4575;SDS011;2300;51.874;8.430;2023-03-31T04:32:46;95.73;;;90.73;;
4575;SDS011;2300;51.874;8.430;2023-03-31T04:35:14;96.60;;;91.40;;
4575;SDS011;2300;51.874;8.430;2023-03-31T04:37:41;93.00;;;88.50;;
4575;SDS011;2300;51.874;8.430;2023-03-31T04:40:08;97.07;;;92.33;;
4575;SDS011;2300;51.874;8.430;2023-03-31T04:42:37;98.40;;;93.60;;
4575;SDS011;2300;51.874;8.430;2023-03-31T04:45:03;101.27;;;96.07;;
4575;SDS011;2300;51.874;8.430;2023-03-31T04:47:30;104.00;;;98.90;;
4575;SDS011;2300;51.874;8.430;2023-03-31T04:49:57;100.13;;;94.87;;
4575;SDS011;2300;51.874;8.430;2023-03-31T04:52:23;97.37;;;92.17;;
4575;SDS011;2300;51.874;8.430;2023-03-31T04:54:50;98.67;;;93.83;;
4575;SDS011;2300;51.874;8.430;2023-03-31T04:57:16;98.67;;;93.87;;
4575;SDS011;2300;51.874;8.430;2023-03-31T04:59:44;96.27;;;91.03;;
4575;SDS011;2300;51.874;8.430;2023-03-31T05:02:11;92.77;;;87.53;;
4575;SDS011;2300;51.874;8.430;2023-03-31T05:04:37;87.80;;;82.80;;
4575;SDS011;2300;51.874;8.430;2023-03-31T05:07:03;94.20;;;88.93;;
4575;SDS011;2300;51.874;8.430;2023-03-31T05:09:30;94.83;;;90.00;;
4575;SDS011;2300;51.874;8.430;2023-03-31T05:11:56;91.87;;;86.70;;
4575;SDS011;2300;51.874;8.430;2023-03-31T05:14:23;90.07;;;85.20;;
4575;SDS011;2300;51.874;8.430;2023-03-31T05:16:51;94.93;;;89.63;;
4575;SDS011;2300;51.874;8.430;2023-03-31T05:19:17;94.93;;;89.77;;
4575;SDS011;2300;51.874;8.430;2023-03-31T05:21:44;99.23;;;93.57;;
4575;SDS011;2300;51.874;8.430;2023-03-31T05:24:10;102.43;;;96.80;;
4575;SDS011;2300;51.874;8.430;2023-03-31T05:26:37;105.13;;;99.60;;
4575;SDS011;2300;51.874;8.430;2023-03-31T05:29:05;100.83;;;95.63;;
4575;SDS011;2300;51.874;8.430;2023-03-31T05:31:31;97.33;;;92.03;;
4575;SDS011;2300;51.874;8.430;2023-03-31T05:33:59;100.43;;;95.10;;
4575;SDS011;2300;51.874;8.430;2023-03-31T05:36:25;100.90;;;95.23;;
4575;SDS011;2300;51.874;8.430;2023-03-31T05:38:52;98.30;;;92.70;;
4575;SDS011;2300;51.874;8.430;2023-03-31T05:41:18;95.87;;;90.50;;
4575;SDS011;2300;51.874;8.430;2023-03-31T05:43:45;90.07;;;85.13;;
4575;SDS011;2300;51.874;8.430;2023-03-31T05:46:11;94.23;;;89.33;;
4575;SDS011;2300;51.874;8.430;2023-03-31T05:48:38;91.90;;;87.03;;
4575;SDS011;2300;51.874;8.430;2023-03-31T05:51:06;88.83;;;84.30;;
4575;SDS011;2300;51.874;8.430;2023-03-31T05:53:33;95.67;;;90.97;;
4575;SDS011;2300;51.874;8.430;2023-03-31T05:55:59;101.83;;;96.43;;
4575;SDS011;2300;51.874;8.430;2023-03-31T05:58:27;99.47;;;94.00;;
4575;SDS011;2300;51.874;8.430;2023-03-31T06:01:01;69.70;;;66.30;;
4575;SDS011;2300;51.874;8.430;2023-03-31T06:03:32;76.90;;;72.80;;
4575;SDS011;2300;51.874;8.430;2023-03-31T06:05:58;88.03;;;83.47;;
4575;SDS011;2300;51.874;8.430;2023-03-31T06:08:27;92.33;;;87.67;;
4575;SDS011;2300;51.874;8.430;2023-03-31T06:10:53;64.07;;;60.63;;
4575;SDS011;2300;51.874;8.430;2023-03-31T06:13:20;64.23;;;60.77;;
4575;SDS011;2300;51.874;8.430;2023-03-31T06:15:51;67.30;;;63.47;;
4575;SDS011;2300;51.874;8.430;2023-03-31T06:18:19;72.57;;;68.60;;
4575;SDS011;2300;51.874;8.430;2023-03-31T06:20:45;86.50;;;82.10;;
4575;SDS011;2300;51.874;8.430;2023-03-31T06:23:12;63.07;;;59.40;;
4575;SDS011;2300;51.874;8.430;2023-03-31T06:25:39;63.63;;;59.97;;
4575;SDS011;2300;51.874;8.430;2023-03-31T06:28:06;69.67;;;65.73;;
4575;SDS011;2300;51.874;8.430;2023-03-31T06:30:32;79.17;;;74.83;;
4575;SDS011;2300;51.874;8.430;2023-03-31T06:32:59;66.73;;;62.90;;
4575;SDS011;2300;51.874;8.430;2023-03-31T06:35:25;73.90;;;69.40;;
4575;SDS011;2300;51.874;8.430;2023-03-31T06:37:52;72.83;;;68.40;;
4575;SDS011;2300;51.874;8.430;2023-03-31T06:40:18;73.60;;;69.47;;
4575;SDS011;2300;51.874;8.430;2023-03-31T06:42:46;69.20;;;65.47;;
4575;SDS011;2300;51.874;8.430;2023-03-31T06:45:12;70.37;;;66.17;;
4575;SDS011;2300;51.874;8.430;2023-03-31T06:47:39;73.40;;;69.30;;
4575;SDS011;2300;51.874;8.430;2023-03-31T06:50:06;71.83;;;67.77;;
4575;SDS011;2300;51.874;8.430;2023-03-31T06:52:34;80.00;;;75.67;;
4575;SDS011;2300;51.874;8.430;2023-03-31T06:55:01;71.13;;;66.93;;
4575;SDS011;2300;51.874;8.430;2023-03-31T06:57:28;72.53;;;68.60;;
4575;SDS011;2300;51.874;8.430;2023-03-31T06:59:58;73.40;;;69.30;;
4575;SDS011;2300;51.874;8.430;2023-03-31T07:02:25;69.47;;;65.77;;
4575;SDS011;2300;51.874;8.430;2023-03-31T07:04:51;72.00;;;68.23;;
4575;SDS011;2300;51.874;8.430;2023-03-31T07:07:18;96.93;;;91.93;;
4575;SDS011;2300;51.874;8.430;2023-03-31T07:09:44;70.53;;;66.50;;
4575;SDS011;2300;51.874;8.430;2023-03-31T07:12:11;72.83;;;68.83;;
4575;SDS011;2300;51.874;8.430;2023-03-31T07:14:37;74.00;;;69.97;;
4575;SDS011;2300;51.874;8.430;2023-03-31T07:17:05;75.27;;;71.03;;
4575;SDS011;2300;51.874;8.430;2023-03-31T07:19:32;64.93;;;61.70;;
4575;SDS011;2300;51.874;8.430;2023-03-31T07:22:01;70.47;;;66.93;;
4575;SDS011;2300;51.874;8.430;2023-03-31T07:24:30;68.10;;;64.57;;
4575;SDS011;2300;51.874;8.430;2023-03-31T07:26:56;73.23;;;69.47;;
4575;SDS011;2300;51.874;8.430;2023-03-31T07:29:23;87.60;;;83.37;;
4575;SDS011;2300;51.874;8.430;2023-03-31T07:31:50;67.87;;;64.40;;
4575;SDS011;2300;51.874;8.430;2023-03-31T07:34:18;68.03;;;64.67;;
4575;SDS011;2300;51.874;8.430;2023-03-31T07:36:45;69.33;;;65.70;;
4575;SDS011;2300;51.874;8.430;2023-03-31T07:39:11;67.20;;;63.93;;
4575;SDS011;2300;51.874;8.430;2023-03-31T07:41:38;69.73;;;65.93;;
4575;SDS011;2300;51.874;8.430;2023-03-31T07:44:04;74.17;;;70.73;;
4575;SDS011;2300;51.874;8.430;2023-03-31T07:46:31;84.37;;;80.23;;
4575;SDS011;2300;51.874;8.430;2023-03-31T07:48:57;64.97;;;61.50;;
4575;SDS011;2300;51.874;8.430;2023-03-31T07:51:27;80.87;;;77.10;;
4575;SDS011;2300;51.874;8.430;2023-03-31T07:53:54;57.07;;;54.27;;
4575;SDS011;2300;51.874;8.430;2023-03-31T07:56:21;60.57;;;57.40;;
4575;SDS011;2300;51.874;8.430;2023-03-31T07:58:49;70.73;;;67.03;;
4575;SDS011;2300;51.874;8.430;2023-03-31T08:01:17;75.23;;;71.43;;
4575;SDS011;2300;51.874;8.430;2023-03-31T08:03:46;76.33;;;72.77;;
4575;SDS011;2300;51.874;8.430;2023-03-31T08:06:16;79.43;;;75.57;;
4575;SDS011;2300;51.874;8.430;2023-03-31T08:08:44;69.27;;;65.77;;
4575;SDS011;2300;51.874;8.430;2023-03-31T08:11:10;73.60;;;70.10;;
4575;SDS011;2300;51.874;8.430;2023-03-31T08:13:38;86.30;;;82.10;;
4575;SDS011;2300;51.874;8.430;2023-03-31T08:16:04;76.53;;;72.83;;
4575;SDS011;2300;51.874;8.430;2023-03-31T08:18:31;79.50;;;75.50;;
4575;SDS011;2300;51.874;8.430;2023-03-31T08:20:57;92.00;;;87.87;;
4575;SDS011;2300;51.874;8.430;2023-03-31T08:23:24;104.67;;;99.73;;
4575;SDS011;2300;51.874;8.430;2023-03-31T08:25:52;114.07;;;108.53;;
4575;SDS011;2300;51.874;8.430;2023-03-31T08:28:18;117.37;;;112.00;;
4575;SDS011;2300;51.874;8.430;2023-03-31T08:30:44;90.10;;;85.87;;
4575;SDS011;2300;51.874;8.430;2023-03-31T08:33:11;101.83;;;97.03;;
4575;SDS011;2300;51.874;8.430;2023-03-31T08:35:38;102.63;;;98.00;;
4575;SDS011;2300;51.874;8.430;2023-03-31T08:38:04;75.67;;;71.83;;
4575;SDS011;2300;51.874;8.430;2023-03-31T08:40:31;106.47;;;101.57;;
4575;SDS011;2300;51.874;8.430;2023-03-31T08:43:01;85.90;;;81.90;;
4575;SDS011;2300;51.874;8.430;2023-03-31T08:45:31;141.13;;;134.47;;
4575;SDS011;2300;51.874;8.430;2023-03-31T08:48:01;145.77;;;138.23;;
4575;SDS011;2300;51.874;8.430;2023-03-31T08:50:32;83.50;;;79.63;;
4575;SDS011;2300;51.874;8.430;2023-03-31T08:53:03;156.43;;;148.77;;
4575;SDS011;2300;51.874;8.430;2023-03-31T08:55:33;110.17;;;105.10;;
4575;SDS011;2300;51.874;8.430;2023-03-31T08:58:07;94.43;;;90.10;;
4575;SDS011;2300;51.874;8.430;2023-03-31T09:00:39;89.07;;;84.90;;
4575;SDS011;2300;51.874;8.430;2023-03-31T09:03:21;97.67;;;93.10;;
4575;SDS011;2300;51.874;8.430;2023-03-31T09:05:55;80.17;;;76.43;;
4575;SDS011;2300;51.874;8.430;2023-03-31T09:08:35;75.03;;;71.57;;
4575;SDS011;2300;51.874;8.430;2023-03-31T09:11:05;83.63;;;79.63;;
4575;SDS011;2300;51.874;8.430;2023-03-31T09:13:46;125.00;;;118.97;;
4575;SDS011;2300;51.874;8.430;2023-03-31T09:16:36;98.07;;;93.43;;
4575;SDS011;2300;51.874;8.430;2023-03-31T09:19:14;114.73;;;109.53;;
4575;SDS011;2300;51.874;8.430;2023-03-31T09:21:44;96.93;;;92.23;;
4575;SDS011;2300;51.874;8.430;2023-03-31T09:24:15;79.47;;;75.77;;
4575;SDS011;2300;51.874;8.430;2023-03-31T09:26:46;78.63;;;74.87;;
4575;SDS011;2300;51.874;8.430;2023-03-31T09:29:20;104.33;;;99.40;;
4575;SDS011;2300;51.874;8.430;2023-03-31T09:31:51;70.17;;;66.93;;
4575;SDS011;2300;51.874;8.430;2023-03-31T09:34:26;69.40;;;66.07;;
4575;SDS011;2300;51.874;8.430;2023-03-31T09:36:55;75.93;;;72.40;;
4575;SDS011;2300;51.874;8.430;2023-03-31T09:39:22;79.10;;;75.63;;
4575;SDS011;2300;51.874;8.430;2023-03-31T09:41:49;76.50;;;72.87;;
4575;SDS011;2300;51.874;8.430;2023-03-31T09:44:22;77.83;;;74.27;;
4575;SDS011;2300;51.874;8.430;2023-03-31T09:46:51;71.73;;;68.27;;
4575;SDS011;2300;51.874;8.430;2023-03-31T09:49:19;71.07;;;67.80;;
4575;SDS011;2300;51.874;8.430;2023-03-31T09:51:48;70.23;;;66.87;;
4575;SDS011;2300;51.874;8.430;2023-03-31T09:54:26;77.10;;;73.47;;
4575;SDS011;2300;51.874;8.430;2023-03-31T09:56:59;74.97;;;71.57;;
4575;SDS011;2300;51.874;8.430;2023-03-31T09:59:30;76.87;;;73.37;;
4575;SDS011;2300;51.874;8.430;2023-03-31T10:01:59;81.13;;;77.37;;
4575;SDS011;2300;51.874;8.430;2023-03-31T10:04:27;64.93;;;61.93;;
4575;SDS011;2300;51.874;8.430;2023-03-31T10:06:57;64.97;;;61.90;;
4575;SDS011;2300;51.874;8.430;2023-03-31T10:09:25;83.43;;;79.63;;
4575;SDS011;2300;51.874;8.430;2023-03-31T10:11:55;71.67;;;68.27;;
4575;SDS011;2300;51.874;8.430;2023-03-31T10:14:25;83.50;;;79.40;;
4575;SDS011;2300;51.874;8.430;2023-03-31T10:17:01;75.13;;;71.60;;
4575;SDS011;2300;51.874;8.430;2023-03-31T10:19:30;65.00;;;62.00;;
4575;SDS011;2300;51.874;8.430;2023-03-31T10:21:59;70.97;;;67.60;;
4575;SDS011;2300;51.874;8.430;2023-03-31T10:24:34;67.80;;;64.60;;
4575;SDS011;2300;51.874;8.430;2023-03-31T10:27:03;74.70;;;71.17;;
4575;SDS011;2300;51.874;8.430;2023-03-31T10:29:32;66.67;;;63.37;;
4575;SDS011;2300;51.874;8.430;2023-03-31T10:32:07;63.27;;;60.37;;
4575;SDS011;2300;51.874;8.430;2023-03-31T10:34:40;69.27;;;65.67;;
4575;SDS011;2300;51.874;8.430;2023-03-31T10:37:09;74.80;;;70.80;;
4575;SDS011;2300;51.874;8.430;2023-03-31T10:39:41;66.47;;;63.37;;
4575;SDS011;2300;51.874;8.430;2023-03-31T10:42:09;76.87;;;73.07;;
4575;SDS011;2300;51.874;8.430;2023-03-31T10:44:37;60.87;;;57.87;;
4575;SDS011;2300;51.874;8.430;2023-03-31T10:47:17;59.40;;;56.60;;
4575;SDS011;2300;51.874;8.430;2023-03-31T10:49:46;58.10;;;55.33;;
4575;SDS011;2300;51.874;8.430;2023-03-31T10:52:17;58.77;;;55.83;;
4575;SDS011;2300;51.874;8.430;2023-03-31T10:54:50;58.10;;;55.17;;
4575;SDS011;2300;51.874;8.430;2023-03-31T10:57:22;63.30;;;60.20;;
4575;SDS011;2300;51.874;8.430;2023-03-31T11:00:01;69.73;;;66.43;;
4575;SDS011;2300;51.874;8.430;2023-03-31T11:05:46;75.07;;;71.43;;
4575;SDS011;2300;51.874;8.430;2023-03-31T11:08:22;96.17;;;91.77;;
4575;SDS011;2300;51.874;8.430;2023-03-31T11:11:02;63.93;;;60.73;;
4575;SDS011;2300;51.874;8.430;2023-03-31T11:13:40;78.53;;;74.63;;
4575;SDS011;2300;51.874;8.430;2023-03-31T11:16:16;68.13;;;64.72;;
4575;SDS011;2300;51.874;8.430;2023-03-31T11:18:53;60.90;;;57.67;;
4575;SDS011;2300;51.874;8.430;2023-03-31T11:21:34;61.38;;;58.17;;
4575;SDS011;2300;51.874;8.430;2023-03-31T11:24:16;59.15;;;56.25;;
4575;SDS011;2300;51.874;8.430;2023-03-31T11:26:54;58.47;;;55.50;;
4575;SDS011;2300;51.874;8.430;2023-03-31T11:29:32;49.15;;;46.53;;
4575;SDS011;2300;51.874;8.430;2023-03-31T11:32:24;60.33;;;57.25;;
4575;SDS011;2300;51.874;8.430;2023-03-31T11:35:06;63.55;;;60.47;;
4575;SDS011;2300;51.874;8.430;2023-03-31T11:37:50;69.13;;;65.63;;
4575;SDS011;2300;51.874;8.430;2023-03-31T11:40:32;64.20;;;60.88;;
4575;SDS011;2300;51.874;8.430;2023-03-31T11:43:09;60.95;;;57.38;;
4575;SDS011;2300;51.874;8.430;2023-03-31T11:45:43;63.97;;;60.75;;
4575;SDS011;2300;51.874;8.430;2023-03-31T11:48:15;58.60;;;55.50;;
4575;SDS011;2300;51.874;8.430;2023-03-31T11:50:47;76.07;;;72.22;;
4575;SDS011;2300;51.874;8.430;2023-03-31T11:53:16;84.00;;;79.78;;
4575;SDS011;2300;51.874;8.430;2023-03-31T11:55:45;89.77;;;85.53;;
4575;SDS011;2300;51.874;8.430;2023-03-31T11:58:16;86.87;;;82.67;;
4575;SDS011;2300;51.874;8.430;2023-03-31T12:00:47;85.88;;;81.63;;
4575;SDS011;2300;51.874;8.430;2023-03-31T12:03:18;74.37;;;70.47;;
4575;SDS011;2300;51.874;8.430;2023-03-31T12:05:49;84.28;;;80.25;;
4575;SDS011;2300;51.874;8.430;2023-03-31T12:08:21;96.83;;;92.13;;
4575;SDS011;2300;51.874;8.430;2023-03-31T12:10:55;92.40;;;87.73;;
4575;SDS011;2300;51.874;8.430;2023-03-31T12:13:31;79.80;;;75.67;;
4575;SDS011;2300;51.874;8.430;2023-03-31T12:16:03;76.17;;;72.30;;
4575;SDS011;2300;51.874;8.430;2023-03-31T12:18:34;76.13;;;72.10;;
4575;SDS011;2300;51.874;8.430;2023-03-31T12:21:05;73.17;;;69.43;;
4575;SDS011;2300;51.874;8.430;2023-03-31T12:23:37;64.30;;;60.70;;
4575;SDS011;2300;51.874;8.430;2023-03-31T12:26:10;55.47;;;52.20;;
4575;SDS011;2300;51.874;8.430;2023-03-31T12:28:43;67.13;;;63.60;;
4575;SDS011;2300;51.874;8.430;2023-03-31T12:31:13;64.07;;;60.73;;
4575;SDS011;2300;51.874;8.430;2023-03-31T12:33:44;79.18;;;75.40;;
4575;SDS011;2300;51.874;8.430;2023-03-31T12:36:20;77.07;;;73.13;;
4575;SDS011;2300;51.874;8.430;2023-03-31T12:39:04;57.22;;;54.20;;
4575;SDS011;2300;51.874;8.430;2023-03-31T12:41:45;65.32;;;61.95;;
4575;SDS011;2300;51.874;8.430;2023-03-31T12:44:28;61.05;;;57.92;;
4575;SDS011;2300;51.874;8.430;2023-03-31T12:53:10;61.67;;;58.22;;
4575;SDS011;2300;51.874;8.430;2023-03-31T12:55:44;58.95;;;55.67;;
4575;SDS011;2300;51.874;8.430;2023-03-31T12:58:35;82.40;;;78.03;;
4575;SDS011;2300;51.874;8.430;2023-03-31T13:01:05;116.32;;;110.25;;
4575;SDS011;2300;51.874;8.430;2023-03-31T13:03:44;108.57;;;102.73;;
4575;SDS011;2300;51.874;8.430;2023-03-31T13:09:41;90.17;;;85.37;;
4575;SDS011;2300;51.874;8.430;2023-03-31T13:12:19;87.10;;;82.77;;
4575;SDS011;2300;51.874;8.430;2023-03-31T13:14:48;84.20;;;80.20;;
4575;SDS011;2300;51.874;8.430;2023-03-31T13:17:24;105.23;;;100.13;;
4575;SDS011;2300;51.874;8.430;2023-03-31T13:19:54;106.70;;;101.80;;
4575;SDS011;2300;51.874;8.430;2023-03-31T13:22:29;96.97;;;92.30;;
4575;SDS011;2300;51.874;8.430;2023-03-31T13:28:23;97.87;;;93.37;;
4575;SDS011;2300;51.874;8.430;2023-03-31T13:30:52;85.07;;;81.07;;
4575;SDS011;2300;51.874;8.430;2023-03-31T13:33:26;88.77;;;84.60;;
4575;SDS011;2300;51.874;8.430;2023-03-31T13:36:09;87.90;;;83.87;;
4575;SDS011;2300;51.874;8.430;2023-03-31T13:38:57;89.37;;;85.10;;
4575;SDS011;2300;51.874;8.430;2023-03-31T13:41:38;89.40;;;84.90;;
4575;SDS011;2300;51.874;8.430;2023-03-31T13:44:24;105.97;;;100.90;;
4575;SDS011;2300;51.874;8.430;2023-03-31T13:50:11;71.57;;;68.07;;
4575;SDS011;2300;51.874;8.430;2023-03-31T13:52:46;69.43;;;65.90;;
4575;SDS011;2300;51.874;8.430;2023-03-31T13:55:27;73.47;;;69.60;;
4575;SDS011;2300;51.874;8.430;2023-03-31T14:01:29;94.20;;;89.80;;
4575;SDS011;2300;51.874;8.430;2023-03-31T14:04:10;85.53;;;81.57;;
4575;SDS011;2300;51.874;8.430;2023-03-31T14:06:47;90.77;;;86.03;;
4575;SDS011;2300;51.874;8.430;2023-03-31T14:09:19;84.97;;;80.93;;
4575;SDS011;2300;51.874;8.430;2023-03-31T14:11:50;77.13;;;73.33;;
4575;SDS011;2300;51.874;8.430;2023-03-31T14:14:17;86.50;;;82.33;;
4575;SDS011;2300;51.874;8.430;2023-03-31T14:16:45;76.40;;;72.80;;
4575;SDS011;2300;51.874;8.430;2023-03-31T14:22:24;78.80;;;75.17;;
4575;SDS011;2300;51.874;8.430;2023-03-31T14:25:05;77.70;;;74.00;;
4575;SDS011;2300;51.874;8.430;2023-03-31T14:27:40;82.63;;;78.57;;
4575;SDS011;2300;51.874;8.430;2023-03-31T14:30:22;83.03;;;79.23;;
4575;SDS011;2300;51.874;8.430;2023-03-31T14:33:01;80.77;;;76.70;;
4575;SDS011;2300;51.874;8.430;2023-03-31T14:35:38;76.97;;;73.37;;
4575;SDS011;2300;51.874;8.430;2023-03-31T14:38:16;73.13;;;69.50;;
4575;SDS011;2300;51.874;8.430;2023-03-31T14:40:45;74.43;;;70.97;;
4575;SDS011;2300;51.874;8.430;2023-03-31T14:43:16;79.13;;;75.17;;
4575;SDS011;2300;51.874;8.430;2023-03-31T14:45:45;78.33;;;74.53;;
4575;SDS011;2300;51.874;8.430;2023-03-31T14:48:13;90.67;;;86.50;;
4575;SDS011;2300;51.874;8.430;2023-03-31T14:50:41;77.30;;;73.50;;
4575;SDS011;2300;51.874;8.430;2023-03-31T14:53:12;82.47;;;78.27;;
4575;SDS011;2300;51.874;8.430;2023-03-31T14:55:39;77.67;;;73.77;;
4575;SDS011;2300;51.874;8.430;2023-03-31T14:58:07;86.63;;;82.50;;
4575;SDS011;2300;51.874;8.430;2023-03-31T15:00:38;74.23;;;70.40;;
4575;SDS011;2300;51.874;8.430;2023-03-31T15:03:06;83.93;;;79.63;;
4575;SDS011;2300;51.874;8.430;2023-03-31T15:05:39;70.13;;;66.37;;
4575;SDS011;2300;51.874;8.430;2023-03-31T15:08:10;74.30;;;70.47;;
4575;SDS011;2300;51.874;8.430;2023-03-31T15:10:40;88.50;;;84.23;;
4575;SDS011;2300;51.874;8.430;2023-03-31T15:13:09;59.73;;;56.40;;
4575;SDS011;2300;51.874;8.430;2023-03-31T15:15:40;63.27;;;59.90;;
4575;SDS011;2300;51.874;8.430;2023-03-31T15:18:09;81.50;;;77.17;;
4575;SDS011;2300;51.874;8.430;2023-03-31T15:20:39;64.57;;;60.80;;
4575;SDS011;2300;51.874;8.430;2023-03-31T15:23:17;68.50;;;65.00;;
4575;SDS011;2300;51.874;8.430;2023-03-31T15:25:48;72.23;;;68.67;;
4575;SDS011;2300;51.874;8.430;2023-03-31T15:28:18;75.77;;;72.03;;
4575;SDS011;2300;51.874;8.430;2023-03-31T15:30:46;73.57;;;69.80;;
4575;SDS011;2300;51.874;8.430;2023-03-31T15:33:16;73.18;;;69.30;;
4575;SDS011;2300;51.874;8.430;2023-03-31T15:35:48;75.80;;;71.87;;
4575;SDS011;2300;51.874;8.430;2023-03-31T15:38:14;80.63;;;76.57;;
4575;SDS011;2300;51.874;8.430;2023-03-31T15:40:43;72.93;;;69.13;;
4575;SDS011;2300;51.874;8.430;2023-03-31T15:43:15;80.00;;;75.93;;